Home > Products > Valid Products > TAF

000
FTUS44 KMRX 221739
TAFTYS
TAF
KTYS 221739Z 2218/2318 16005KT P6SM SCT040 BKN250
     FM230900 VRB03KT P6SM BKN040 OVC080
     FM231500 06005KT 4SM -SHRA BR BKN025 BKN060=



000
FTUS44 KMRX 221739
TAFTRI
TAF
KTRI 221739Z 2218/2318 16003KT P6SM SCT120 BKN250
     FM230300 00000KT P6SM SCT060 BKN250
     FM230900 00000KT P6SM SCT050 BKN100
     FM231500 06005KT P6SM SCT040 BKN100=



000
FTUS44 KMRX 221739
TAFCHA
TAF
KCHA 221739Z 2218/2318 17006KT P6SM SCT100 BKN250
     FM230000 16006KT P6SM BKN050
     FM230300 15004KT P6SM BKN030 OVC070
     FM230900 14003KT P6SM VCSH BKN025 OVC050
     FM231400 05006KT 4SM -SHRA BR BKN025=



000
FTUS44 KMRX 221739
TAFCHA
TAF
KCHA 221739Z 2218/2318 17006KT P6SM SCT100 BKN250
     FM230000 16006KT P6SM BKN050
     FM230300 15004KT P6SM BKN030 OVC070
     FM230900 14003KT P6SM VCSH BKN025 OVC050
     FM231400 05006KT 4SM -SHRA BR BKN025=



000
FTUS44 KMRX 221739
TAFTYS
TAF
KTYS 221739Z 2218/2318 16005KT P6SM SCT040 BKN250
     FM230900 VRB03KT P6SM BKN040 OVC080
     FM231500 06005KT 4SM -SHRA BR BKN025 BKN060=



000
FTUS44 KMRX 221739
TAFTRI
TAF
KTRI 221739Z 2218/2318 16003KT P6SM SCT120 BKN250
     FM230300 00000KT P6SM SCT060 BKN250
     FM230900 00000KT P6SM SCT050 BKN100
     FM231500 06005KT P6SM SCT040 BKN100=



000
FTUS44 KMRX 221120
TAFTRI
TAF
KTRI 221120Z 2212/2312 00000KT P6SM FEW100 SCT250
     FM221500 21003KT P6SM SCT120
     FM230300 00000KT P6SM SCT060 BKN250
     FM230900 00000KT P6SM SCT050 BKN100=



000
FTUS44 KMRX 221120
TAFCHA
TAF
KCHA 221120Z 2212/2312 00000KT P6SM SCT100
     FM221400 17006KT P6SM SCT100 BKN250
     FM230000 16006KT P6SM BKN050
     FM230300 15004KT P6SM BKN030 OVC070
     FM230900 14003KT P6SM VCSH BKN025 OVC050=



000
FTUS44 KMRX 221120
TAFTYS
TAF
KTYS 221120Z 2212/2312 04003KT P6SM FEW100 SCT250
     FM221500 21005KT P6SM SCT040 BKN250
     FM230300 20003KT P6SM BKN050
     FM230900 VRB03KT P6SM BKN040 OVC080=



000
FTUS44 KMRX 221120
TAFTRI
TAF
KTRI 221120Z 2212/2312 00000KT P6SM FEW100 SCT250
     FM221500 21003KT P6SM SCT120
     FM230300 00000KT P6SM SCT060 BKN250
     FM230900 00000KT P6SM SCT050 BKN100=



000
FTUS44 KMRX 221120
TAFTYS
TAF
KTYS 221120Z 2212/2312 04003KT P6SM FEW100 SCT250
     FM221500 21005KT P6SM SCT040 BKN250
     FM230300 20003KT P6SM BKN050
     FM230900 VRB03KT P6SM BKN040 OVC080=



000
FTUS44 KMRX 221120
TAFCHA
TAF
KCHA 221120Z 2212/2312 00000KT P6SM SCT100
     FM221400 17006KT P6SM SCT100 BKN250
     FM230000 16006KT P6SM BKN050
     FM230300 15004KT P6SM BKN030 OVC070
     FM230900 14003KT P6SM VCSH BKN025 OVC050=



000
FTUS44 KMRX 220529
TAFTYS
TAF
KTYS 220529Z 2206/2306 04003KT P6SM SCT250
     FM220900 03003KT P6SM BKN100
     FM221500 21005KT P6SM SCT040 BKN250
     FM230300 VRB03KT P6SM BKN050=



000
FTUS44 KMRX 220529
TAFCHA
TAF
KCHA 220529Z 2206/2306 00000KT P6SM SCT070 BKN110
     FM221400 17006KT P6SM SCT100 BKN250
     FM230000 VRB03KT P6SM BKN050
     FM230300 00000KT P6SM OVC035=



000
FTUS44 KMRX 220529
TAFTRI
TAF
KTRI 220529Z 2206/2306 00000KT P6SM SCT250
     FM221500 21003KT P6SM SCT120
     FM230300 00000KT P6SM SCT060 BKN250=



000
FTUS44 KMRX 220529
TAFCHA
TAF
KCHA 220529Z 2206/2306 00000KT P6SM SCT070 BKN110
     FM221400 17006KT P6SM SCT100 BKN250
     FM230000 VRB03KT P6SM BKN050
     FM230300 00000KT P6SM OVC035=



000
FTUS44 KMRX 220529
TAFTRI
TAF
KTRI 220529Z 2206/2306 00000KT P6SM SCT250
     FM221500 21003KT P6SM SCT120
     FM230300 00000KT P6SM SCT060 BKN250=



000
FTUS44 KMRX 220529
TAFTYS
TAF
KTYS 220529Z 2206/2306 04003KT P6SM SCT250
     FM220900 03003KT P6SM BKN100
     FM221500 21005KT P6SM SCT040 BKN250
     FM230300 VRB03KT P6SM BKN050=



000
FTUS44 KMRX 212320
TAFTRI
TAF
KTRI 212320Z 2200/2224 VRB03KT P6SM FEW150 SCT250=



000
FTUS44 KMRX 212320
TAFTYS
TAF
KTYS 212320Z 2200/2224 02004KT P6SM FEW150
     FM221500 20005KT P6SM SCT040 BKN250=



000
FTUS44 KMRX 212320
TAFCHA
TAF
KCHA 212320Z 2200/2224 VRB03KT P6SM SCT140
     FM221400 16007KT P6SM SCT040 SCT150=



000
FTUS44 KMRX 212320
TAFTYS
TAF
KTYS 212320Z 2200/2224 02004KT P6SM FEW150
     FM221500 20005KT P6SM SCT040 BKN250=



000
FTUS44 KMRX 212320
TAFTRI
TAF
KTRI 212320Z 2200/2224 VRB03KT P6SM FEW150 SCT250=



000
FTUS44 KMRX 212320
TAFCHA
TAF
KCHA 212320Z 2200/2224 VRB03KT P6SM SCT140
     FM221400 16007KT P6SM SCT040 SCT150=



000
FTUS44 KMRX 211725
TAFCHA
TAF
KCHA 211725Z 2118/2218 03005KT P6SM SCT040 SCT250
     FM220000 00000KT P6SM SCT070
     FM220800 16003KT P6SM SCT040 BKN200
     FM221400 16007KT P6SM SCT040 BKN150=



000
FTUS44 KMRX 211725
TAFTRI
TAF
KTRI 211725Z 2118/2218 VRB03KT P6SM SKC=



000
FTUS44 KMRX 211725
TAFTYS
TAF
KTYS 211725Z 2118/2218 04004KT P6SM FEW040
     FM220200 VRB03KT P6SM SCT080
     FM220800 00000KT P6SM SCT045 BKN250
     FM221400 21005KT P6SM SCT040 BKN250=



000
FTUS44 KMRX 211725
TAFCHA
TAF
KCHA 211725Z 2118/2218 03005KT P6SM SCT040 SCT250
     FM220000 00000KT P6SM SCT070
     FM220800 16003KT P6SM SCT040 BKN200
     FM221400 16007KT P6SM SCT040 BKN150=



000
FTUS44 KMRX 211725
TAFTRI
TAF
KTRI 211725Z 2118/2218 VRB03KT P6SM SKC=



000
FTUS44 KMRX 211725
TAFTYS
TAF
KTYS 211725Z 2118/2218 04004KT P6SM FEW040
     FM220200 VRB03KT P6SM SCT080
     FM220800 00000KT P6SM SCT045 BKN250
     FM221400 21005KT P6SM SCT040 BKN250=



000
FTUS44 KMRX 211122
TAFCHA
TAF
KCHA 211122Z 2112/2212 03005KT P6SM SCT050
     FM220000 00000KT P6SM SCT070
     FM220800 16003KT P6SM SCT040 BKN200=



000
FTUS44 KMRX 211122
TAFTRI
TAF
KTRI 211122Z 2112/2212 VRB03KT P6SM SKC
     FM220000 00000KT P6SM SCT250
     FM220800 00000KT P6SM BKN250=



000
FTUS44 KMRX 211122
TAFTYS
TAF
KTYS 211122Z 2112/2212 04004KT P6SM FEW050 SCT250
     FM220200 VRB03KT P6SM SCT080
     FM220800 00000KT P6SM SCT045 BKN200=



000
FTUS44 KMRX 211122
TAFTRI
TAF
KTRI 211122Z 2112/2212 VRB03KT P6SM SKC
     FM220000 00000KT P6SM SCT250
     FM220800 00000KT P6SM BKN250=



000
FTUS44 KMRX 211122
TAFTYS
TAF
KTYS 211122Z 2112/2212 04004KT P6SM FEW050 SCT250
     FM220200 VRB03KT P6SM SCT080
     FM220800 00000KT P6SM SCT045 BKN200=



000
FTUS44 KMRX 211122
TAFCHA
TAF
KCHA 211122Z 2112/2212 03005KT P6SM SCT050
     FM220000 00000KT P6SM SCT070
     FM220800 16003KT P6SM SCT040 BKN200=



000
FTUS44 KMRX 210521
TAFCHA
TAF
KCHA 210521Z 2106/2206 00000KT P6SM BKN080
     FM211200 VRB02KT P6SM FEW060
     FM211500 03005KT P6SM SCT045
     FM220000 00000KT P6SM SCT070=



000
FTUS44 KMRX 210521
TAFTRI
TAF
KTRI 210521Z 2106/2206 VRB03KT P6SM SKC
     FM220000 00000KT P6SM SCT250=



000
FTUS44 KMRX 210521
TAFTYS
TAF
KTYS 210521Z 2106/2206 23004KT P6SM SKC
     FM210900 VRB03KT P6SM SCT080
     FM211400 03005KT P6SM SCT250
     FM220200 00000KT P6SM SCT080=



000
FTUS44 KMRX 210521
TAFCHA
TAF
KCHA 210521Z 2106/2206 00000KT P6SM BKN080
     FM211200 VRB02KT P6SM FEW060
     FM211500 03005KT P6SM SCT045
     FM220000 00000KT P6SM SCT070=



000
FTUS44 KMRX 210521
TAFTYS
TAF
KTYS 210521Z 2106/2206 23004KT P6SM SKC
     FM210900 VRB03KT P6SM SCT080
     FM211400 03005KT P6SM SCT250
     FM220200 00000KT P6SM SCT080=



000
FTUS44 KMRX 210521
TAFTRI
TAF
KTRI 210521Z 2106/2206 VRB03KT P6SM SKC
     FM220000 00000KT P6SM SCT250=



000
FTUS44 KMRX 202320
TAFTYS
TAF
KTYS 202320Z 2100/2124 27005KT P6SM SKC
     FM210700 VRB02KT P6SM SCT060
     FM211400 03005KT P6SM SCT250=



000
FTUS44 KMRX 202320
TAFCHA
TAF
KCHA 202320Z 2100/2124 30004KT P6SM SKC
     FM210600 00000KT P6SM SCT060
     FM211500 03004KT P6SM SCT040=



000
FTUS44 KMRX 202320
TAFTYS
TAF
KTYS 202320Z 2100/2124 27005KT P6SM SKC
     FM210700 VRB02KT P6SM SCT060
     FM211400 03005KT P6SM SCT250=



000
FTUS44 KMRX 202320
TAFCHA
TAF
KCHA 202320Z 2100/2124 30004KT P6SM SKC
     FM210600 00000KT P6SM SCT060
     FM211500 03004KT P6SM SCT040=



000
FTUS44 KMRX 202320
TAFTRI
TAF
KTRI 202320Z 2100/2124 VRB02KT P6SM SKC=



000
FTUS44 KMRX 202320
TAFTRI
TAF
KTRI 202320Z 2100/2124 VRB02KT P6SM SKC=



000
FTUS44 KMRX 201737
TAFTYS
TAF
KTYS 201737Z 2018/2118 24012G20KT P6SM SCT250
     FM210000 25003KT P6SM SCT250
     FM211400 03005KT P6SM SCT250=



000
FTUS44 KMRX 201737
TAFTRI
TAF
KTRI 201737Z 2018/2118 27014G24KT P6SM SCT040 SCT250
     FM210000 33003KT P6SM SCT250=



000
FTUS44 KMRX 201737
TAFCHA
TAF
KCHA 201737Z 2018/2118 29010G18KT P6SM SCT250
     FM210000 33003KT P6SM FEW250
     FM211400 03004KT P6SM SCT040 SCT250=



000
FTUS44 KMRX 201737
TAFTRI
TAF
KTRI 201737Z 2018/2118 27014G24KT P6SM SCT040 SCT250
     FM210000 33003KT P6SM SCT250=



000
FTUS44 KMRX 201737
TAFTYS
TAF
KTYS 201737Z 2018/2118 24012G20KT P6SM SCT250
     FM210000 25003KT P6SM SCT250
     FM211400 03005KT P6SM SCT250=



000
FTUS44 KMRX 201737
TAFCHA
TAF
KCHA 201737Z 2018/2118 29010G18KT P6SM SCT250
     FM210000 33003KT P6SM FEW250
     FM211400 03004KT P6SM SCT040 SCT250=



000
FTUS44 KMRX 201131
TAFTRI
TAF
KTRI 201131Z 2012/2112 25007KT P6SM SCT060
      TEMPO 2012/2015 BKN060
     FM201700 26010KT P6SM SCT060 BKN200
     FM210000 00000KT P6SM SCT250=



000
FTUS44 KMRX 201131
TAFTYS
TAF
KTYS 201131Z 2012/2112 24008KT P6SM SCT060 BKN250
     FM201500 24011KT P6SM SCT070
     FM210000 25003KT P6SM SCT250=



000
FTUS44 KMRX 201131
TAFCHA
TAF
KCHA 201131Z 2012/2112 VRB03KT P6SM SCT060 BKN250
     FM201500 22008KT P6SM SCT070
     FM210000 00000KT P6SM FEW250=



000
FTUS44 KMRX 201131
TAFTYS
TAF
KTYS 201131Z 2012/2112 24008KT P6SM SCT060 BKN250
     FM201500 24011KT P6SM SCT070
     FM210000 25003KT P6SM SCT250=



000
FTUS44 KMRX 201131
TAFTRI
TAF
KTRI 201131Z 2012/2112 25007KT P6SM SCT060
      TEMPO 2012/2015 BKN060
     FM201700 26010KT P6SM SCT060 BKN200
     FM210000 00000KT P6SM SCT250=



000
FTUS44 KMRX 201131
TAFCHA
TAF
KCHA 201131Z 2012/2112 VRB03KT P6SM SCT060 BKN250
     FM201500 22008KT P6SM SCT070
     FM210000 00000KT P6SM FEW250=



000
FTUS44 KMRX 200801 AAA
TAFTRI
TAF AMD
KTRI 200801Z 2008/2106 22010KT P6SM BKN060
     FM201000 00000KT P6SM BKN060
     FM201600 26010KT P6SM SCT060 BKN200
     FM210000 00000KT P6SM SCT250=



000
FTUS44 KMRX 200801 AAA
TAFTRI
TAF AMD
KTRI 200801Z 2008/2106 22010KT P6SM BKN060
     FM201000 00000KT P6SM BKN060
     FM201600 26010KT P6SM SCT060 BKN200
     FM210000 00000KT P6SM SCT250=



000
FTUS44 KMRX 200800 AAB
TAFTYS
TAF AMD
KTYS 200800Z 2008/2106 22015KT P6SM BKN060
     FM201000 22005KT P6SM BKN060
     FM201400 24011KT P6SM SCT070
     FM210000 24003KT P6SM SCT250=



000
FTUS44 KMRX 200800 AAB
TAFTYS
TAF AMD
KTYS 200800Z 2008/2106 22015KT P6SM BKN060
     FM201000 22005KT P6SM BKN060
     FM201400 24011KT P6SM SCT070
     FM210000 24003KT P6SM SCT250=



000
FTUS44 KMRX 200641 AAA
TAFTYS
TAF AMD
KTYS 200641Z 2007/2106 22013KT P6SM BKN060
     FM200800 22005KT P6SM BKN060
     FM201400 24011KT P6SM SCT070
     FM210000 24003KT P6SM SCT250=



000
FTUS44 KMRX 200523
TAFTYS
TAF
KTYS 200523Z 2006/2106 22013KT P6SM SCT070
     FM200800 22005KT P6SM BKN060
     FM201400 24011KT P6SM SCT070
     FM210000 24003KT P6SM SCT250=



000
FTUS44 KMRX 200523
TAFTYS
TAF
KTYS 200523Z 2006/2106 22013KT P6SM SCT070
     FM200800 22005KT P6SM BKN060
     FM201400 24011KT P6SM SCT070
     FM210000 24003KT P6SM SCT250=



000
FTUS44 KMRX 200523
TAFCHA
TAF
KCHA 200523Z 2006/2106 VRB03KT P6SM BKN060
     FM201500 25008KT P6SM SCT080
     FM210000 00000KT P6SM SCT250=



000
FTUS44 KMRX 200523
TAFCHA
TAF
KCHA 200523Z 2006/2106 VRB03KT P6SM BKN060
     FM201500 25008KT P6SM SCT080
     FM210000 00000KT P6SM SCT250=



000
FTUS44 KMRX 200523
TAFTRI
TAF
KTRI 200523Z 2006/2106 00000KT P6SM BKN060
     FM201600 26010KT P6SM SCT060 BKN200
     FM210000 00000KT P6SM SCT250=



000
FTUS44 KMRX 200523
TAFTRI
TAF
KTRI 200523Z 2006/2106 00000KT P6SM BKN060
     FM201600 26010KT P6SM SCT060 BKN200
     FM210000 00000KT P6SM SCT250=



000
FTUS44 KMRX 192320
TAFTRI
TAF
KTRI 192320Z 2000/2024 22006KT P6SM BKN250
     FM200600 24004KT P6SM BKN080 BKN200
     FM201300 26012KT P6SM SCT100 BKN200=



000
FTUS44 KMRX 192320
TAFTYS
TAF
KTYS 192320Z 2000/2024 22012KT P6SM BKN250
     FM200600 23006KT P6SM SCT120 BKN250
     FM201400 24013KT P6SM BKN100 BKN250=



000
FTUS44 KMRX 192320
TAFCHA
TAF
KCHA 192320Z 2000/2024 18007KT P6SM BKN250
     FM200400 19003KT P6SM SCT250
     FM201500 25007KT P6SM FEW150 BKN250=



000
FTUS44 KMRX 192320
TAFTYS
TAF
KTYS 192320Z 2000/2024 22012KT P6SM BKN250
     FM200600 23006KT P6SM SCT120 BKN250
     FM201400 24013KT P6SM BKN100 BKN250=



000
FTUS44 KMRX 192320
TAFTRI
TAF
KTRI 192320Z 2000/2024 22006KT P6SM BKN250
     FM200600 24004KT P6SM BKN080 BKN200
     FM201300 26012KT P6SM SCT100 BKN200=



000
FTUS44 KMRX 192320
TAFCHA
TAF
KCHA 192320Z 2000/2024 18007KT P6SM BKN250
     FM200400 19003KT P6SM SCT250
     FM201500 25007KT P6SM FEW150 BKN250=



    US Dept of Commerce
    National Oceanic and Atmospheric Administration
    National Weather Service
    1325 East West Highway
    Silver Spring, MD 20910
    Page Author: NWS Internet Services Team
Disclaimer
Information Quality
Credits
Glossary
Privacy Policy
Freedom of Information Act (FOIA)
About Us
Career Opportunities